createdAt,value
2017-11-24T00:02:25.073Z,90.93
2017-11-24T00:04:51.222Z,90.49
2017-11-24T00:07:17.411Z,89.93
2017-11-24T00:09:43.519Z,89.43
2017-11-24T00:12:10.007Z,89.46
2017-11-24T00:14:36.160Z,89.31
2017-11-24T00:17:02.305Z,89.24
2017-11-24T00:19:28.403Z,89.05
2017-11-24T00:21:54.615Z,89.11
2017-11-24T00:24:20.752Z,89.27
2017-11-24T00:26:46.791Z,89.12
2017-11-24T00:29:12.849Z,89.33
2017-11-24T00:31:39.057Z,89.21
2017-11-24T00:34:05.279Z,89.18
2017-11-24T00:36:31.473Z,89.34
2017-11-24T00:38:57.539Z,89.38
2017-11-24T00:41:23.554Z,89.57
2017-11-24T00:43:49.702Z,89.59
2017-11-24T00:46:15.783Z,89.54
2017-11-24T00:48:41.786Z,89.50
2017-11-24T00:51:07.889Z,89.31
2017-11-24T00:53:34.041Z,88.71
2017-11-24T00:56:00.352Z,88.86
2017-11-24T00:58:26.451Z,88.88
2017-11-24T01:00:52.560Z,88.81
2017-11-24T01:03:18.690Z,89.05
2017-11-24T01:05:44.781Z,88.83
2017-11-24T01:08:10.975Z,89.07
2017-11-24T01:10:37.144Z,89.24
2017-11-24T01:13:03.269Z,89.43
2017-11-24T01:15:29.407Z,89.58
2017-11-24T01:17:55.426Z,89.75
2017-11-24T01:20:21.539Z,89.87
2017-11-24T01:22:47.620Z,89.94
2017-11-24T01:25:13.754Z,90.08
2017-11-24T01:27:40.242Z,90.18
2017-11-24T01:30:06.453Z,90.28
2017-11-24T01:32:32.602Z,90.50
2017-11-24T01:34:58.795Z,90.62
2017-11-24T01:37:24.863Z,90.53
2017-11-24T01:39:51.068Z,90.62
2017-11-24T01:42:17.197Z,90.62
2017-11-24T01:44:43.377Z,90.57
2017-11-24T01:47:09.876Z,90.48
2017-11-24T01:49:35.957Z,90.40
2017-11-24T01:52:02.006Z,90.41
2017-11-24T01:54:28.042Z,90.37
2017-11-24T01:56:54.177Z,90.37
2017-11-24T01:59:20.337Z,90.38
2017-11-24T02:01:46.421Z,90.22
2017-11-24T02:04:12.528Z,90.29
2017-11-24T02:06:38.865Z,90.42
2017-11-24T02:09:04.993Z,90.49
2017-11-24T02:11:31.101Z,90.66
2017-11-24T02:13:57.189Z,90.72
2017-11-24T02:16:23.384Z,90.57
2017-11-24T02:18:49.558Z,90.72
2017-11-24T02:21:16.003Z,90.90
2017-11-24T02:23:42.201Z,91.16
2017-11-24T02:26:08.359Z,91.34
2017-11-24T02:28:34.563Z,91.60
2017-11-24T02:31:00.677Z,91.61
2017-11-24T02:33:26.895Z,91.44
2017-11-24T02:35:52.973Z,91.67
2017-11-24T02:38:19.130Z,91.91
2017-11-24T02:40:45.288Z,92.04
2017-11-24T02:43:11.451Z,92.14
2017-11-24T02:45:37.734Z,92.29
2017-11-24T02:48:03.885Z,92.18
2017-11-24T02:50:29.955Z,92.24
2017-11-24T02:52:56.117Z,92.67
2017-11-24T02:55:22.647Z,92.88
2017-11-24T02:57:48.822Z,92.93
2017-11-24T03:00:14.912Z,93.12
2017-11-24T03:02:41.102Z,93.17
2017-11-24T03:05:07.298Z,93.43
2017-11-24T03:07:33.509Z,93.81
2017-11-24T03:09:59.812Z,93.58
2017-11-24T03:12:26.080Z,93.40
2017-11-24T03:14:52.380Z,93.53
2017-11-24T03:17:18.557Z,93.86
2017-11-24T03:19:44.770Z,94.16
2017-11-24T03:22:10.920Z,94.07
2017-11-24T03:24:37.137Z,93.86
2017-11-24T03:27:03.391Z,93.41
2017-11-24T03:29:29.527Z,93.30
2017-11-24T03:31:55.602Z,93.48
2017-11-24T03:34:21.763Z,93.69
2017-11-24T03:36:48.404Z,93.64
2017-11-24T03:39:14.494Z,93.87
2017-11-24T03:41:40.572Z,94.35
2017-11-24T03:44:06.712Z,94.70
2017-11-24T03:46:32.876Z,94.82
2017-11-24T03:48:59.170Z,95.09
2017-11-24T03:51:25.319Z,95.39
2017-11-24T03:53:51.349Z,95.67
2017-11-24T03:56:17.524Z,96.02
2017-11-24T03:58:43.697Z,96.11
2017-11-24T04:01:10.153Z,95.63
2017-11-24T04:03:36.233Z,95.44
2017-11-24T04:06:02.498Z,95.24
2017-11-24T04:08:28.589Z,95.59
2017-11-24T04:10:54.869Z,95.80
2017-11-24T04:13:21.060Z,95.86
2017-11-24T04:15:47.170Z,95.52
2017-11-24T04:18:13.413Z,95.65
2017-11-24T04:20:39.499Z,95.60
2017-11-24T04:23:05.565Z,95.78
2017-11-24T04:25:31.900Z,95.73
2017-11-24T04:27:58.186Z,95.92
2017-11-24T04:30:24.564Z,95.73
2017-11-24T04:32:50.711Z,95.53
2017-11-24T04:35:16.839Z,95.86
2017-11-24T04:37:43.013Z,96.21
2017-11-24T04:40:09.171Z,96.54
2017-11-24T04:42:35.493Z,96.35
2017-11-24T04:45:01.522Z,95.80
2017-11-24T04:47:27.642Z,95.38
2017-11-24T04:49:53.782Z,95.79
2017-11-24T04:52:20.007Z,95.70
2017-11-24T04:54:46.155Z,96.10
2017-11-24T04:57:12.161Z,96.56
2017-11-24T04:59:38.221Z,96.67
2017-11-24T05:02:04.815Z,96.70
2017-11-24T05:04:31.027Z,96.58
2017-11-24T05:06:57.954Z,96.61
2017-11-24T05:09:24.079Z,96.44
2017-11-24T05:11:50.290Z,96.40
2017-11-24T05:14:16.487Z,96.01
2017-11-24T05:16:42.702Z,96.12
2017-11-24T05:19:08.964Z,96.14
2017-11-24T05:21:35.177Z,96.13
2017-11-24T05:24:01.384Z,96.14
2017-11-24T05:26:27.465Z,96.10
2017-11-24T05:28:53.626Z,96.09
2017-11-24T05:31:19.707Z,96.02
2017-11-24T05:33:45.786Z,96.32
2017-11-24T05:36:11.836Z,96.37
2017-11-24T05:38:37.939Z,96.52
2017-11-24T05:41:04.231Z,96.57
2017-11-24T05:43:30.229Z,96.66
2017-11-24T05:45:56.341Z,96.73
2017-11-24T05:48:22.523Z,96.79
2017-11-24T05:50:48.720Z,96.85
2017-11-24T05:53:15.187Z,96.92
2017-11-24T05:55:41.220Z,97.00
2017-11-24T05:58:07.719Z,97.13
2017-11-24T06:00:33.924Z,97.31
2017-11-24T06:03:07.526Z,97.65
2017-11-24T06:05:33.874Z,97.68
2017-11-24T06:08:00.024Z,97.71
2017-11-24T06:10:26.903Z,97.87
2017-11-24T06:12:53.370Z,97.64
2017-11-24T06:15:20.427Z,97.63
2017-11-24T06:17:48.392Z,97.66
2017-11-24T06:20:17.598Z,97.75
2017-11-24T06:22:43.757Z,97.94
2017-11-24T06:25:09.945Z,98.08
2017-11-24T06:27:36.045Z,98.00
2017-11-24T06:30:02.161Z,97.99
2017-11-24T06:32:28.242Z,98.25
2017-11-24T06:34:54.369Z,97.95
2017-11-24T06:37:20.475Z,98.42
2017-11-24T06:39:46.651Z,98.73
2017-11-24T06:42:12.680Z,98.55
2017-11-24T06:47:11.645Z,98.26
2017-11-24T06:49:37.713Z,98.28
2017-11-24T06:52:03.771Z,97.63
2017-11-24T06:54:32.049Z,97.33
2017-11-24T06:56:58.111Z,97.31
2017-11-24T06:59:24.335Z,97.04
2017-11-24T07:01:50.462Z,97.17
2017-11-24T07:04:16.608Z,97.32
2017-11-24T07:06:42.776Z,97.33
2017-11-24T07:09:09.052Z,97.35
2017-11-24T07:11:36.050Z,97.56
2017-11-24T07:14:02.411Z,97.29
2017-11-24T07:16:29.031Z,97.23
2017-11-24T07:18:55.143Z,97.15
2017-11-24T07:21:21.377Z,96.69
2017-11-24T07:23:47.575Z,96.30
2017-11-24T07:26:13.732Z,95.61
2017-11-24T07:28:39.853Z,94.61
2017-11-24T07:31:06.533Z,93.64
2017-11-24T07:33:38.388Z,92.36
2017-11-24T07:36:13.538Z,91.75
2017-11-24T07:38:43.210Z,91.83
2017-11-24T07:41:14.603Z,91.91
2017-11-24T07:43:47.360Z,92.03
2017-11-24T07:46:15.013Z,92.41
2017-11-24T07:48:41.429Z,92.02
2017-11-24T07:51:07.988Z,92.00
2017-11-24T07:53:34.521Z,92.22
2017-11-24T07:56:01.410Z,92.74
2017-11-24T07:58:30.053Z,93.04
2017-11-24T08:00:57.447Z,92.31
2017-11-24T08:03:24.922Z,92.08
2017-11-24T08:05:53.525Z,90.89
2017-11-24T08:08:29.084Z,90.63
2017-11-24T08:11:01.144Z,90.70
2017-11-24T08:13:28.415Z,90.50
2017-11-24T08:15:55.688Z,90.34
2017-11-24T08:18:24.520Z,90.21
2017-11-24T08:20:51.774Z,90.08
2017-11-24T08:23:19.616Z,89.65
2017-11-24T08:25:48.514Z,89.41
2017-11-24T08:28:20.671Z,88.90
2017-11-24T08:30:50.153Z,88.21
2017-11-24T08:33:17.650Z,87.94
2017-11-24T08:35:44.295Z,87.29
2017-11-24T08:38:13.312Z,86.59
2017-11-24T08:40:40.836Z,85.30
2017-11-24T08:43:09.467Z,84.99
2017-11-24T08:45:36.695Z,85.01
2017-11-24T09:02:01.964Z,83.10
2017-11-24T09:04:30.468Z,83.84
2017-11-24T09:06:57.534Z,83.89
2017-11-24T09:09:38.251Z,83.86
2017-11-24T09:12:06.348Z,84.59
2017-11-24T09:14:34.129Z,84.83
2017-11-24T09:17:05.435Z,84.60
2017-11-24T09:19:35.163Z,85.05
2017-11-24T09:22:02.676Z,84.82
2017-11-24T09:24:31.504Z,84.82
2017-11-24T09:27:00.528Z,84.45
2017-11-24T09:29:28.114Z,84.33
2017-11-24T09:31:55.529Z,83.48
2017-11-24T09:36:57.004Z,82.77
2017-11-24T09:39:24.265Z,82.59
2017-11-24T09:41:52.345Z,82.67
2017-11-24T09:44:19.478Z,82.80
2017-11-24T09:46:46.947Z,82.14
2017-11-24T09:49:18.981Z,82.79
2017-11-24T09:51:45.606Z,82.82
2017-11-24T09:54:12.120Z,82.26
2017-11-24T09:56:38.490Z,82.90
2017-11-24T09:59:04.912Z,81.96
2017-11-24T10:01:32.367Z,81.18
2017-11-24T10:03:58.958Z,80.33
2017-11-24T10:06:25.376Z,80.40
2017-11-24T10:08:51.814Z,80.04
2017-11-24T10:11:18.211Z,80.99
2017-11-24T10:13:44.899Z,80.44
2017-11-24T10:16:11.220Z,79.01
2017-11-24T10:18:37.632Z,78.90
2017-11-24T10:21:10.122Z,79.18
2017-11-24T10:23:41.334Z,79.44
2017-11-24T10:26:12.318Z,79.85
2017-11-24T10:28:39.724Z,79.88
2017-11-24T10:31:08.330Z,78.42
2017-11-24T10:33:37.008Z,77.95
2017-11-24T10:36:15.642Z,76.12
2017-11-24T10:38:43.865Z,74.50
2017-11-24T10:41:12.201Z,73.58
2017-11-24T10:43:39.438Z,73.03
2017-11-24T10:46:09.039Z,72.66
2017-11-24T10:48:37.342Z,71.29
2017-11-24T10:51:04.315Z,70.57
2017-11-24T10:53:30.897Z,69.89
2017-11-24T10:55:57.114Z,69.31
2017-11-24T10:58:23.596Z,70.22
2017-11-24T11:00:49.842Z,70.00
2017-11-24T11:03:16.233Z,69.77
2017-11-24T11:08:15.989Z,69.69
2017-11-24T11:10:42.436Z,69.32
2017-11-24T11:13:08.871Z,67.44
2017-11-24T11:15:35.443Z,67.61
2017-11-24T11:18:01.957Z,66.13
2017-11-24T11:20:28.344Z,66.28
2017-11-24T11:22:54.805Z,67.13
2017-11-24T11:25:22.179Z,64.63
2017-11-24T11:27:52.892Z,63.75
2017-11-24T11:30:36.662Z,62.64
2017-11-24T11:33:09.028Z,62.88
2017-11-24T11:38:20.612Z,63.28
2017-11-24T11:40:55.716Z,61.80
2017-11-24T11:43:33.474Z,61.67
2017-11-24T11:46:04.921Z,60.04
2017-11-24T11:51:13.264Z,59.13
2017-11-24T11:53:45.372Z,58.60
2017-11-24T11:56:12.226Z,57.36
2017-11-24T11:58:43.372Z,57.50
2017-11-24T12:01:10.846Z,57.55
2017-11-24T12:03:56.808Z,57.21
2017-11-24T12:06:38.462Z,55.47
2017-11-24T12:09:05.651Z,55.62
2017-11-24T12:11:32.909Z,55.80
2017-11-24T12:13:59.126Z,55.60
2017-11-24T12:16:29.946Z,54.92
2017-11-24T12:19:11.842Z,54.25
2017-11-24T12:21:48.860Z,53.85
2017-11-24T12:24:19.511Z,53.53
2017-11-24T12:26:45.875Z,52.58
2017-11-24T12:29:20.058Z,53.15
2017-11-24T12:31:47.909Z,53.95
2017-11-24T12:34:16.089Z,54.59
2017-11-24T12:36:46.179Z,55.35
2017-11-24T12:39:12.716Z,55.51
2017-11-24T12:44:18.766Z,56.69
2017-11-24T12:46:46.091Z,57.09
2017-11-24T12:49:13.086Z,57.56
2017-11-24T12:54:18.358Z,58.01
2017-11-24T12:56:46.860Z,58.82
2017-11-24T12:59:13.967Z,59.18
2017-11-24T13:01:41.775Z,59.42
2017-11-24T13:04:09.442Z,59.35
2017-11-24T13:06:38.039Z,59.64
2017-11-24T13:09:06.093Z,60.47
2017-11-24T13:11:34.727Z,60.75
2017-11-24T13:14:01.199Z,60.44
2017-11-24T13:16:34.360Z,60.78
2017-11-24T13:19:02.376Z,60.79
2017-11-24T13:21:33.716Z,60.51
2017-11-24T13:24:00.256Z,61.05
2017-11-24T13:26:29.576Z,60.64
2017-11-24T13:29:00.453Z,60.84
2017-11-24T13:31:28.384Z,61.22
2017-11-24T13:33:54.953Z,61.60
2017-11-24T13:36:22.828Z,61.48
2017-11-24T13:38:49.475Z,61.41
2017-11-24T13:41:20.115Z,61.92
2017-11-24T13:43:47.393Z,62.04
2017-11-24T13:46:15.720Z,62.45
2017-11-24T13:48:42.793Z,62.48
2017-11-24T13:51:09.432Z,62.75
2017-11-24T13:53:36.585Z,62.27
2017-11-24T13:56:04.155Z,62.35
2017-11-24T13:58:36.721Z,62.39
2017-11-24T14:01:03.221Z,63.03
2017-11-24T14:03:30.682Z,62.93
2017-11-24T14:05:58.469Z,63.18
2017-11-24T14:08:25.518Z,63.29
2017-11-24T14:10:54.025Z,63.33
2017-11-24T14:13:28.679Z,63.84
2017-11-24T14:15:54.975Z,64.27
2017-11-24T14:18:21.747Z,64.04
2017-11-24T14:20:48.320Z,64.00
2017-11-24T14:23:21.340Z,63.89
2017-11-24T14:25:49.113Z,64.30
2017-11-24T14:28:16.772Z,64.38
2017-11-24T14:30:43.192Z,64.78
2017-11-24T14:33:09.808Z,64.86
2017-11-24T14:35:36.239Z,65.06
2017-11-24T14:38:02.843Z,65.11
2017-11-24T14:40:29.875Z,65.34
2017-11-24T14:42:56.864Z,65.32
2017-11-24T14:45:23.418Z,65.68
2017-11-24T14:47:51.619Z,66.42
2017-11-24T14:50:20.321Z,67.01
2017-11-24T14:52:52.141Z,67.67
2017-11-24T14:55:18.609Z,68.03
2017-11-24T14:57:48.349Z,68.62
2017-11-24T15:00:36.225Z,69.57
2017-11-24T15:03:11.181Z,70.67
2017-11-24T15:08:14.871Z,70.73
2017-11-24T15:10:44.991Z,71.15
2017-11-24T15:13:13.759Z,71.64
2017-11-24T15:18:45.607Z,71.09
2017-11-24T15:21:15.258Z,71.32
2017-11-24T15:23:43.837Z,72.57
2017-11-24T15:28:47.462Z,75.03
2017-11-24T15:31:24.281Z,75.87
2017-11-24T15:33:55.674Z,76.66
2017-11-24T15:36:23.651Z,77.03
2017-11-24T15:38:53.306Z,77.94
2017-11-24T15:43:55.494Z,78.71
2017-11-24T15:46:24.278Z,79.12
2017-11-24T15:48:53.632Z,79.87
2017-11-24T15:51:24.031Z,80.24
2017-11-24T15:53:56.247Z,80.69
2017-11-24T15:56:27.257Z,81.02
2017-11-24T16:01:29.528Z,81.77
2017-11-24T16:03:59.918Z,81.96
2017-11-24T16:06:29.337Z,82.13
2017-11-24T16:08:58.173Z,82.40
2017-11-24T16:11:25.328Z,82.62
2017-11-24T16:13:52.205Z,82.79
2017-11-24T16:16:20.115Z,82.79
2017-11-24T16:18:46.884Z,82.82
2017-11-24T16:21:14.014Z,83.08
2017-11-24T16:23:44.770Z,83.28
2017-11-24T16:26:11.751Z,83.77
2017-11-24T16:28:38.715Z,84.07
2017-11-24T16:31:05.669Z,84.10
2017-11-24T16:33:32.446Z,84.25
2017-11-24T16:35:59.328Z,84.59
2017-11-24T16:38:26.140Z,84.70
2017-11-24T16:40:57.493Z,84.91
2017-11-24T16:43:24.756Z,84.74
2017-11-24T16:45:53.130Z,84.84
2017-11-24T16:48:34.293Z,84.65
2017-11-24T16:51:01.268Z,84.91
2017-11-24T16:53:28.263Z,85.12
2017-11-24T16:55:55.720Z,85.14
2017-11-24T16:58:22.844Z,85.05
2017-11-24T17:00:50.580Z,85.19
2017-11-24T17:03:17.407Z,85.16
2017-11-24T17:05:44.396Z,85.14
2017-11-24T17:08:11.100Z,85.17
2017-11-24T17:10:37.655Z,85.20
2017-11-24T17:13:04.595Z,85.24
2017-11-24T17:15:31.595Z,85.28
2017-11-24T17:17:58.059Z,85.25
2017-11-24T17:20:24.971Z,85.34
2017-11-24T17:22:53.005Z,85.45
2017-11-24T17:25:20.555Z,85.45
2017-11-24T17:27:49.337Z,85.59
2017-11-24T17:30:17.007Z,85.70
2017-11-24T17:32:43.881Z,85.94
2017-11-24T17:35:10.623Z,86.21
2017-11-24T17:37:38.648Z,86.42
2017-11-24T17:42:41.357Z,86.96
2017-11-24T17:45:08.309Z,86.99
2017-11-24T17:47:35.891Z,86.84
2017-11-24T17:50:02.859Z,86.84
2017-11-24T17:52:30.941Z,86.77
2017-11-24T17:54:59.281Z,86.82
2017-11-24T17:57:26.412Z,86.78
2017-11-24T17:59:58.151Z,86.62
2017-11-24T18:05:04.680Z,86.56
2017-11-24T18:07:34.905Z,86.37
2017-11-24T18:10:03.883Z,86.43
2017-11-24T18:15:04.751Z,86.67
2017-11-24T18:17:32.854Z,86.79
2017-11-24T18:25:22.864Z,87.00
2017-11-24T18:30:43.291Z,87.09
2017-11-24T18:33:17.296Z,87.16
2017-11-24T18:35:44.934Z,87.16
2017-11-24T18:38:11.727Z,87.28
2017-11-24T18:40:38.640Z,86.67
2017-11-24T18:43:05.074Z,86.63
2017-11-24T18:45:31.748Z,86.54
2017-11-24T18:47:58.350Z,86.43
2017-11-24T18:50:24.704Z,86.57
2017-11-24T18:52:51.251Z,86.63
2017-11-24T18:55:17.728Z,86.59
2017-11-24T18:57:45.019Z,86.35
2017-11-24T19:00:11.521Z,86.00
2017-11-24T19:02:40.320Z,85.70
2017-11-24T19:07:43.929Z,84.93
2017-11-24T19:10:11.098Z,84.69
2017-11-24T19:12:38.491Z,84.38
2017-11-24T19:15:11.770Z,84.24
2017-11-24T19:17:38.415Z,84.08
2017-11-24T19:20:05.056Z,84.01
2017-11-24T19:22:31.473Z,83.83
2017-11-24T19:24:58.550Z,83.67
2017-11-24T19:27:24.980Z,83.60
2017-11-24T19:29:51.695Z,83.51
2017-11-24T19:32:18.309Z,83.42
2017-11-24T19:34:44.702Z,83.45
2017-11-24T19:37:11.562Z,83.25
2017-11-24T19:39:37.863Z,83.35
2017-11-24T19:42:04.412Z,83.44
2017-11-24T19:44:30.925Z,83.71
2017-11-24T19:46:57.405Z,83.96
2017-11-24T19:49:24.148Z,84.22
2017-11-24T19:51:50.635Z,84.50
2017-11-24T19:54:16.961Z,84.56
2017-11-24T19:56:43.442Z,84.74
2017-11-24T19:59:09.870Z,84.83
2017-11-24T20:01:41.447Z,84.90
2017-11-24T20:04:07.791Z,84.68
2017-11-24T20:06:34.218Z,84.60
2017-11-24T20:09:00.618Z,84.81
2017-11-24T20:11:27.370Z,84.88
2017-11-24T20:13:54.582Z,84.96
2017-11-24T20:16:21.290Z,84.95
2017-11-24T20:18:48.132Z,85.40
2017-11-24T20:21:14.748Z,85.66
2017-11-24T20:23:41.384Z,85.88
2017-11-24T20:26:08.029Z,86.18
2017-11-24T20:28:34.754Z,86.26
2017-11-24T20:31:01.307Z,86.29
2017-11-24T20:33:28.005Z,86.41
2017-11-24T20:35:54.233Z,86.48
2017-11-24T20:38:20.712Z,86.77
2017-11-24T20:41:00.062Z,87.03
2017-11-24T20:43:26.717Z,87.08
2017-11-24T20:45:53.312Z,87.28
2017-11-24T20:48:19.883Z,87.52
2017-11-24T20:50:46.699Z,87.81
2017-11-24T20:53:13.624Z,87.96
2017-11-24T20:55:40.212Z,88.25
2017-11-24T20:58:06.710Z,88.77
2017-11-24T21:00:33.222Z,89.12
2017-11-24T21:02:59.830Z,89.31
2017-11-24T21:05:26.485Z,89.72
2017-11-24T21:07:54.336Z,89.76
2017-11-24T21:10:20.745Z,90.35
2017-11-24T21:12:47.357Z,90.46
2017-11-24T21:15:13.894Z,90.57
2017-11-24T21:17:47.634Z,90.67
2017-11-24T21:20:14.061Z,91.13
2017-11-24T21:22:40.685Z,91.35
2017-11-24T21:25:07.581Z,91.40
2017-11-24T21:27:33.966Z,91.80
2017-11-24T21:30:00.444Z,91.78
2017-11-24T21:32:27.014Z,92.30
2017-11-24T21:34:53.544Z,92.28
2017-11-24T21:37:20.178Z,92.10
2017-11-24T21:39:46.765Z,93.08
2017-11-24T21:42:15.168Z,92.54
2017-11-24T21:44:41.651Z,91.68
2017-11-24T21:47:08.279Z,90.50
2017-11-24T21:49:34.756Z,89.54
2017-11-24T21:52:01.401Z,88.61
2017-11-24T21:54:28.209Z,87.46
2017-11-24T21:56:54.935Z,86.80
2017-11-24T21:59:21.308Z,86.26
2017-11-24T22:01:47.891Z,85.64
2017-11-24T22:04:14.216Z,85.41
2017-11-24T22:06:40.919Z,84.98
2017-11-24T22:09:07.322Z,85.07
2017-11-24T22:11:34.916Z,85.02
2017-11-24T22:14:01.808Z,85.51
2017-11-24T22:16:28.585Z,84.18
2017-11-24T22:18:55.184Z,84.18
2017-11-24T22:21:22.071Z,84.43
2017-11-24T22:23:48.431Z,84.73
2017-11-24T22:26:14.924Z,84.73
2017-11-24T22:28:41.562Z,84.48
2017-11-24T22:31:08.163Z,84.60
2017-11-24T22:33:34.839Z,84.69
2017-11-24T22:36:01.208Z,84.81
2017-11-24T22:38:27.611Z,84.67
2017-11-24T22:40:54.067Z,84.61
2017-11-24T22:43:20.561Z,84.56
2017-11-24T22:45:47.149Z,84.38
2017-11-24T22:48:13.681Z,84.04
2017-11-24T22:50:40.172Z,83.86
2017-11-24T22:53:06.818Z,84.12
2017-11-24T22:55:33.633Z,83.92
2017-11-24T22:58:00.096Z,84.26
2017-11-24T23:00:26.611Z,83.40
2017-11-24T23:02:53.326Z,83.36
2017-11-24T23:05:20.220Z,83.29
2017-11-24T23:07:47.779Z,83.37
2017-11-24T23:10:14.272Z,83.62
2017-11-24T23:12:40.783Z,83.74
2017-11-24T23:15:07.342Z,83.68
2017-11-24T23:17:33.712Z,84.03
2017-11-24T23:20:00.181Z,84.40
2017-11-24T23:22:27.870Z,84.64
2017-11-24T23:24:54.433Z,84.86
2017-11-24T23:27:21.077Z,85.12
2017-11-24T23:29:49.762Z,85.32
2017-11-24T23:32:16.348Z,85.52
2017-11-24T23:34:42.810Z,85.70
2017-11-24T23:37:09.361Z,85.94
2017-11-24T23:39:36.068Z,86.09
2017-11-24T23:42:02.639Z,86.04
2017-11-24T23:44:29.122Z,85.96
2017-11-24T23:46:55.666Z,85.94
2017-11-24T23:49:22.687Z,86.41
2017-11-24T23:51:49.254Z,86.70
2017-11-24T23:54:15.913Z,86.92
2017-11-24T23:56:42.592Z,87.19
2017-11-24T23:59:09.075Z,87.40
